createdAt,value
2019-05-29T00:01:42.201Z,9.56
2019-05-29T00:04:10.328Z,10.13
2019-05-29T00:06:38.531Z,9.55
2019-05-29T00:09:08.118Z,9.65
2019-05-29T00:11:36.324Z,10.18
2019-05-29T00:14:17.861Z,9.89
2019-05-29T00:16:34.315Z,10.14
2019-05-29T00:19:02.495Z,10.19
2019-05-29T00:21:30.628Z,9.96
2019-05-29T00:23:58.782Z,10.10
2019-05-29T00:26:27.173Z,9.99
2019-05-29T00:28:55.337Z,10.02
2019-05-29T00:31:23.470Z,9.95
2019-05-29T00:33:51.651Z,9.99
2019-05-29T00:36:19.743Z,9.94
2019-05-29T00:38:47.870Z,9.86
2019-05-29T00:41:17.126Z,9.11
2019-05-29T00:43:45.291Z,9.60
2019-05-29T00:46:13.492Z,9.49
2019-05-29T00:48:41.616Z,9.11
2019-05-29T00:51:10.928Z,9.14
2019-05-29T00:53:39.095Z,9.51
2019-05-29T00:56:08.431Z,9.08
2019-05-29T00:58:36.648Z,9.51
2019-05-29T01:01:04.875Z,9.09
2019-05-29T01:03:32.985Z,9.36
2019-05-29T01:06:01.174Z,9.29
2019-05-29T01:08:29.304Z,9.38
2019-05-29T01:10:57.549Z,8.63
2019-05-29T01:13:25.722Z,8.59
2019-05-29T01:15:53.858Z,8.30
2019-05-29T01:18:22.389Z,8.65
2019-05-29T01:20:50.632Z,8.28
2019-05-29T01:23:18.770Z,7.93
2019-05-29T01:25:46.896Z,8.42
2019-05-29T01:28:15.061Z,7.91
2019-05-29T01:30:43.168Z,7.60
2019-05-29T01:33:11.320Z,7.21
2019-05-29T01:35:39.494Z,7.29
2019-05-29T01:38:07.595Z,7.76
2019-05-29T01:40:35.766Z,7.07
2019-05-29T01:43:03.869Z,7.32
2019-05-29T01:45:31.967Z,7.21
2019-05-29T01:48:00.081Z,7.28
2019-05-29T01:50:28.230Z,6.92
2019-05-29T01:52:56.322Z,7.39
2019-05-29T01:55:24.412Z,7.96
2019-05-29T01:57:52.517Z,7.66
2019-05-29T02:00:23.997Z,7.72
2019-05-29T02:02:52.377Z,7.30
2019-05-29T02:05:20.509Z,6.95
2019-05-29T02:07:48.645Z,6.33
2019-05-29T02:10:18.095Z,6.18
2019-05-29T02:12:46.441Z,6.00
2019-05-29T02:15:23.743Z,6.02
2019-05-29T02:17:44.565Z,5.64
2019-05-29T02:20:12.892Z,5.48
2019-05-29T02:22:41.031Z,5.70
2019-05-29T02:25:09.459Z,5.93
2019-05-29T02:27:37.573Z,6.06
2019-05-29T02:30:07.817Z,6.00
2019-05-29T02:32:36.021Z,5.85
2019-05-29T02:35:04.314Z,5.88
2019-05-29T02:37:32.368Z,6.17
2019-05-29T02:40:00.487Z,5.50
2019-05-29T02:42:29.193Z,6.33
2019-05-29T02:44:57.396Z,6.66
2019-05-29T02:47:26.124Z,7.04
2019-05-29T02:49:55.373Z,6.86
2019-05-29T02:52:24.278Z,7.10
2019-05-29T02:54:52.408Z,7.12
2019-05-29T02:57:20.822Z,7.19
2019-05-29T02:59:48.918Z,7.13
2019-05-29T03:02:17.036Z,7.12
2019-05-29T03:04:45.208Z,7.03
2019-05-29T03:07:13.306Z,6.92
2019-05-29T03:09:41.563Z,6.90
2019-05-29T03:12:09.709Z,6.92
2019-05-29T03:14:37.791Z,6.94
2019-05-29T03:17:05.922Z,6.96
2019-05-29T03:19:34.673Z,6.93
2019-05-29T03:22:03.028Z,6.90
2019-05-29T03:24:32.765Z,6.79
2019-05-29T03:27:01.167Z,6.83
2019-05-29T03:29:29.986Z,6.78
2019-05-29T03:31:58.403Z,6.78
2019-05-29T03:34:28.496Z,6.79
2019-05-29T03:36:56.360Z,6.66
2019-05-29T03:39:26.212Z,6.22
2019-05-29T03:41:54.558Z,6.26
2019-05-29T03:44:22.733Z,6.41
2019-05-29T03:46:50.846Z,6.50
2019-05-29T03:49:18.987Z,6.23
2019-05-29T03:51:47.097Z,6.42
2019-05-29T03:54:15.273Z,6.31
2019-05-29T03:56:43.487Z,6.50
2019-05-29T03:59:11.673Z,6.45
2019-05-29T04:01:39.843Z,6.51
2019-05-29T04:04:07.956Z,6.53
2019-05-29T04:06:37.466Z,6.53
2019-05-29T04:09:07.326Z,6.54
2019-05-29T04:11:37.673Z,6.50
2019-05-29T04:14:05.830Z,6.50
2019-05-29T04:16:52.779Z,6.48
2019-05-29T04:19:04.841Z,6.34
2019-05-29T04:21:34.231Z,6.23
2019-05-29T04:24:04.596Z,6.15
2019-05-29T04:26:36.215Z,6.48
2019-05-29T04:29:04.640Z,6.52
2019-05-29T04:31:34.365Z,6.47
2019-05-29T04:34:02.874Z,6.54
2019-05-29T04:36:32.816Z,5.35
2019-05-29T04:39:01.040Z,6.37
2019-05-29T04:41:30.830Z,5.93
2019-05-29T04:43:59.071Z,6.41
2019-05-29T04:46:27.258Z,5.93
2019-05-29T04:48:55.411Z,5.83
2019-05-29T04:51:23.556Z,6.34
2019-05-29T04:53:51.818Z,6.12
2019-05-29T04:56:19.956Z,6.47
2019-05-29T04:58:48.154Z,6.13
2019-05-29T05:01:16.270Z,5.94
2019-05-29T05:03:44.478Z,6.08
2019-05-29T05:06:12.603Z,6.21
2019-05-29T05:08:40.767Z,6.48
2019-05-29T05:11:48.453Z,6.31
2019-05-29T05:14:16.578Z,6.16
2019-05-29T05:16:45.834Z,6.23
2019-05-29T05:19:16.373Z,6.48
2019-05-29T05:21:43.858Z,6.42
2019-05-29T05:24:12.010Z,6.49
2019-05-29T05:26:40.503Z,6.66
2019-05-29T05:29:10.079Z,6.72
2019-05-29T05:31:38.571Z,6.58
2019-05-29T05:34:06.716Z,6.91
2019-05-29T05:36:34.905Z,6.87
2019-05-29T05:39:03.164Z,6.79
2019-05-29T05:41:31.327Z,6.90
2019-05-29T05:43:59.491Z,7.09
2019-05-29T05:46:27.623Z,7.06
2019-05-29T05:48:55.847Z,6.86
2019-05-29T05:51:23.963Z,7.28
2019-05-29T05:53:52.105Z,7.27
2019-05-29T05:56:20.254Z,7.47
2019-05-29T05:58:48.450Z,7.69
2019-05-29T06:01:16.599Z,7.78
2019-05-29T06:03:44.780Z,7.70
2019-05-29T06:06:12.965Z,7.75
2019-05-29T06:08:42.294Z,7.91
2019-05-29T06:11:10.785Z,8.26
2019-05-29T06:13:38.942Z,8.31
2019-05-29T06:16:07.122Z,8.34
2019-05-29T06:18:36.446Z,8.56
2019-05-29T06:21:04.720Z,9.08
2019-05-29T06:23:32.866Z,9.43
2019-05-29T06:26:00.999Z,9.70
2019-05-29T06:28:29.150Z,9.84
2019-05-29T06:30:57.433Z,10.06
2019-05-29T06:33:25.622Z,9.96
2019-05-29T06:35:53.792Z,10.20
2019-05-29T06:38:22.006Z,10.24
2019-05-29T06:40:50.107Z,10.31
2019-05-29T06:43:23.227Z,10.77
2019-05-29T06:45:51.769Z,10.95
2019-05-29T06:48:46.625Z,10.92
2019-05-29T06:51:08.887Z,10.96
2019-05-29T06:53:37.730Z,11.18
2019-05-29T06:56:06.040Z,11.14
2019-05-29T06:58:34.273Z,11.51
2019-05-29T07:01:02.493Z,11.67
2019-05-29T07:03:30.614Z,11.77
2019-05-29T07:05:58.787Z,12.03
2019-05-29T07:08:38.375Z,11.80
2019-05-29T07:10:56.888Z,11.50
2019-05-29T07:13:25.038Z,11.57
2019-05-29T07:15:53.231Z,11.85
2019-05-29T07:18:21.399Z,12.49
2019-05-29T07:20:49.586Z,12.15
2019-05-29T07:23:17.764Z,11.51
2019-05-29T07:25:47.311Z,11.41
2019-05-29T07:28:15.631Z,12.11
2019-05-29T07:30:49.782Z,13.06
2019-05-29T07:33:13.859Z,13.09
2019-05-29T07:35:42.024Z,13.31
2019-05-29T07:38:10.200Z,13.54
2019-05-29T07:40:39.083Z,13.84
2019-05-29T07:43:08.351Z,14.06
2019-05-29T07:45:37.760Z,14.30
2019-05-29T07:48:06.373Z,13.60
2019-05-29T07:50:34.613Z,13.77
2019-05-29T07:55:38.476Z,14.62
2019-05-29T07:58:06.701Z,14.02
2019-05-29T08:00:37.957Z,14.27
2019-05-29T08:03:05.226Z,14.73
2019-05-29T08:05:33.456Z,14.23
2019-05-29T08:08:02.963Z,13.51
2019-05-29T08:10:31.165Z,14.07
2019-05-29T08:12:59.643Z,13.84
2019-05-29T08:15:27.946Z,14.11
2019-05-29T08:17:56.133Z,15.46
2019-05-29T08:20:24.368Z,15.22
2019-05-29T08:22:52.571Z,15.37
2019-05-29T08:25:20.774Z,15.62
2019-05-29T08:27:49.044Z,15.93
2019-05-29T08:30:18.548Z,16.00
2019-05-29T08:32:47.058Z,16.60
2019-05-29T08:35:15.173Z,16.91
2019-05-29T08:37:43.409Z,17.16
2019-05-29T08:40:11.887Z,16.85
2019-05-29T08:42:41.077Z,15.21
2019-05-29T08:45:10.051Z,16.72
2019-05-29T08:47:38.274Z,17.16
2019-05-29T08:50:17.891Z,16.88
2019-05-29T08:52:35.555Z,16.38
2019-05-29T08:55:03.646Z,17.04
2019-05-29T08:57:31.761Z,17.79
2019-05-29T08:59:59.979Z,16.46
2019-05-29T09:02:28.176Z,17.11
2019-05-29T09:04:56.438Z,16.63
2019-05-29T09:07:24.563Z,16.18
2019-05-29T09:09:53.345Z,15.88
2019-05-29T09:12:21.579Z,17.75
2019-05-29T09:14:49.756Z,17.71
2019-05-29T09:17:18.491Z,17.56
2019-05-29T09:19:46.683Z,18.44
2019-05-29T09:22:15.012Z,17.04
2019-05-29T09:24:43.127Z,18.99
2019-05-29T09:27:11.402Z,19.11
2019-05-29T09:29:39.643Z,19.65
2019-05-29T09:32:07.859Z,20.06
2019-05-29T09:34:36.148Z,18.76
2019-05-29T09:37:04.380Z,20.23
2019-05-29T09:39:32.579Z,20.14
2019-05-29T09:42:00.783Z,20.77
2019-05-29T09:44:38.397Z,21.03
2019-05-29T09:46:57.919Z,20.77
2019-05-29T09:49:26.139Z,21.28
2019-05-29T09:51:54.414Z,20.71
2019-05-29T09:54:22.779Z,20.08
2019-05-29T09:56:50.976Z,18.52
2019-05-29T09:59:20.451Z,16.18
2019-05-29T10:01:48.659Z,19.19
2019-05-29T10:04:16.898Z,20.38
2019-05-29T10:06:45.067Z,18.40
2019-05-29T10:09:13.254Z,20.28
2019-05-29T10:11:41.518Z,20.91
2019-05-29T10:14:09.702Z,20.51
2019-05-29T10:16:37.834Z,20.75
2019-05-29T10:19:06.156Z,22.12
2019-05-29T10:21:40.827Z,22.33
2019-05-29T10:24:06.283Z,21.20
2019-05-29T10:26:34.539Z,21.54
2019-05-29T10:29:08.205Z,22.08
2019-05-29T10:31:32.679Z,23.08
2019-05-29T10:34:00.870Z,23.24
2019-05-29T10:36:29.135Z,23.13
2019-05-29T10:38:57.305Z,22.60
2019-05-29T10:41:25.514Z,23.81
2019-05-29T10:43:53.711Z,24.11
2019-05-29T10:46:21.913Z,23.66
2019-05-29T10:48:53.807Z,21.19
2019-05-29T10:51:19.948Z,21.42
2019-05-29T10:53:50.395Z,21.20
2019-05-29T10:56:21.105Z,23.41
2019-05-29T10:58:53.790Z,24.55
2019-05-29T11:01:17.975Z,22.28
2019-05-29T11:03:47.235Z,24.51
2019-05-29T11:06:15.478Z,23.56
2019-05-29T11:08:43.650Z,24.76
2019-05-29T11:11:12.109Z,20.71
2019-05-29T11:13:40.357Z,22.70
2019-05-29T11:16:08.578Z,24.57
2019-05-29T11:18:36.735Z,26.29
2019-05-29T11:21:05.034Z,24.71
2019-05-29T11:23:33.558Z,24.04
2019-05-29T11:26:01.790Z,20.67
2019-05-29T11:28:30.697Z,23.18
2019-05-29T11:31:05.317Z,24.68
2019-05-29T11:33:28.870Z,23.76
2019-05-29T11:36:07.338Z,25.32
2019-05-29T11:38:26.961Z,27.03
2019-05-29T11:41:20.224Z,28.04
2019-05-29T11:43:25.212Z,25.14
2019-05-29T11:45:55.119Z,25.16
2019-05-29T11:48:23.345Z,27.98
2019-05-29T11:50:52.108Z,24.16
2019-05-29T11:53:20.506Z,27.01
2019-05-29T11:55:48.755Z,26.54
2019-05-29T11:58:30.560Z,26.07
2019-05-29T12:00:46.873Z,27.67
2019-05-29T12:03:15.104Z,25.55
2019-05-29T12:05:43.311Z,25.50
2019-05-29T12:08:11.536Z,24.51
2019-05-29T12:10:39.752Z,20.60
2019-05-29T12:13:08.401Z,24.24
2019-05-29T12:15:36.655Z,24.20
2019-05-29T12:18:22.761Z,24.05
2019-05-29T12:20:34.953Z,25.23
2019-05-29T12:23:26.213Z,26.77
2019-05-29T12:25:33.118Z,23.11
2019-05-29T12:28:01.453Z,26.10
2019-05-29T12:30:30.444Z,25.69
2019-05-29T12:32:59.172Z,27.06
2019-05-29T12:35:27.559Z,25.99
2019-05-29T12:37:55.709Z,24.23
2019-05-29T12:40:24.268Z,24.81
2019-05-29T12:42:53.554Z,23.05
2019-05-29T12:45:21.965Z,21.92
2019-05-29T12:47:50.158Z,23.00
2019-05-29T12:50:18.826Z,25.16
2019-05-29T12:52:47.737Z,25.97
2019-05-29T12:55:16.594Z,23.33
2019-05-29T12:57:45.018Z,26.54
2019-05-29T13:00:14.161Z,26.66
2019-05-29T13:02:42.564Z,22.04
2019-05-29T13:05:19.759Z,22.36
2019-05-29T13:07:42.598Z,25.56
2019-05-29T13:10:27.218Z,25.82
2019-05-29T13:12:43.406Z,25.17
2019-05-29T13:15:12.570Z,23.82
2019-05-29T13:17:40.804Z,25.70
2019-05-29T13:20:20.943Z,26.45
2019-05-29T13:22:39.303Z,26.27
2019-05-29T13:25:08.235Z,26.41
2019-05-29T13:27:36.435Z,27.34
2019-05-29T13:30:08.172Z,25.57
2019-05-29T13:32:36.188Z,26.46
2019-05-29T13:35:06.298Z,23.69
2019-05-29T13:37:34.601Z,22.70
2019-05-29T13:40:05.500Z,26.37
2019-05-29T13:42:32.708Z,27.25
2019-05-29T13:45:07.725Z,25.55
2019-05-29T13:47:30.913Z,27.47
2019-05-29T13:50:03.591Z,28.58
2019-05-29T13:52:29.005Z,26.42
2019-05-29T13:54:57.341Z,26.40
2019-05-29T13:57:25.559Z,27.43
2019-05-29T13:59:53.769Z,24.80
2019-05-29T14:02:22.201Z,25.74
2019-05-29T14:04:50.433Z,22.93
2019-05-29T14:07:19.051Z,25.11
2019-05-29T14:09:47.407Z,24.89
2019-05-29T14:12:15.591Z,25.53
2019-05-29T14:14:43.787Z,23.64
2019-05-29T14:17:12.903Z,24.33
2019-05-29T14:19:41.109Z,23.67
2019-05-29T14:22:09.366Z,25.34
2019-05-29T14:24:37.554Z,25.15
2019-05-29T14:27:05.754Z,27.22
2019-05-29T14:29:33.936Z,26.37
2019-05-29T14:32:02.960Z,25.15
2019-05-29T14:34:31.329Z,24.76
2019-05-29T14:36:59.593Z,25.10
2019-05-29T14:39:27.785Z,26.30
2019-05-29T14:41:55.988Z,23.32
2019-05-29T14:44:24.207Z,23.17
2019-05-29T14:46:52.407Z,25.47
2019-05-29T14:49:20.609Z,27.01
2019-05-29T14:51:49.069Z,27.65
2019-05-29T14:54:17.231Z,25.96
2019-05-29T14:56:45.729Z,25.19
2019-05-29T14:59:13.961Z,27.61
2019-05-29T15:01:42.239Z,26.74
2019-05-29T15:04:12.698Z,26.40
2019-05-29T15:06:40.368Z,29.67
2019-05-29T15:09:09.620Z,28.34
2019-05-29T15:11:37.915Z,31.18
2019-05-29T15:14:06.415Z,29.74
2019-05-29T15:16:34.557Z,29.97
2019-05-29T15:19:02.794Z,31.59
2019-05-29T15:21:31.005Z,30.78
2019-05-29T15:23:59.205Z,32.04
2019-05-29T15:26:27.354Z,32.35
2019-05-29T15:28:55.534Z,32.45
2019-05-29T15:31:23.693Z,32.37
2019-05-29T15:33:51.926Z,33.13
2019-05-29T15:36:20.107Z,33.28
2019-05-29T15:38:48.330Z,32.96
2019-05-29T15:41:16.887Z,31.54
2019-05-29T15:43:49.041Z,27.75
2019-05-29T15:46:16.400Z,28.93
2019-05-29T15:48:45.054Z,32.41
2019-05-29T15:51:13.321Z,33.08
2019-05-29T15:53:41.448Z,33.01
2019-05-29T15:56:21.361Z,32.78
2019-05-29T15:58:39.559Z,32.83
2019-05-29T16:01:07.795Z,32.66
2019-05-29T16:03:36.006Z,32.90
2019-05-29T16:06:04.612Z,32.76
2019-05-29T16:08:32.903Z,33.02
2019-05-29T16:11:01.113Z,32.76
2019-05-29T16:13:29.366Z,32.99
2019-05-29T16:15:57.561Z,32.96
2019-05-29T16:18:29.003Z,32.76
2019-05-29T16:20:55.721Z,32.69
2019-05-29T16:23:35.137Z,32.71
2019-05-29T16:25:53.792Z,32.58
2019-05-29T16:28:21.962Z,32.68
2019-05-29T16:30:50.431Z,32.35
2019-05-29T16:33:19.469Z,32.32
2019-05-29T16:35:46.896Z,32.19
2019-05-29T16:38:15.965Z,32.00
2019-05-29T16:40:43.411Z,32.03
2019-05-29T16:43:11.935Z,31.85
2019-05-29T16:45:40.304Z,31.72
2019-05-29T16:48:08.507Z,31.55
2019-05-29T16:50:36.839Z,31.56
2019-05-29T16:53:05.053Z,31.57
2019-05-29T16:55:33.330Z,31.42
2019-05-29T16:58:01.547Z,31.33
2019-05-29T17:00:30.280Z,31.28
2019-05-29T17:02:58.416Z,31.15
2019-05-29T17:05:26.676Z,30.98
2019-05-29T17:07:54.817Z,30.76
2019-05-29T17:10:34.490Z,30.91
2019-05-29T17:13:02.655Z,30.74
2019-05-29T17:15:30.928Z,30.60
2019-05-29T17:17:59.079Z,30.57
2019-05-29T17:20:40.393Z,29.58
2019-05-29T17:23:08.597Z,30.27
2019-05-29T17:25:36.893Z,30.20
2019-05-29T17:28:05.179Z,30.01
2019-05-29T17:30:33.554Z,29.94
2019-05-29T17:33:01.816Z,29.89
2019-05-29T17:35:30.153Z,29.64
2019-05-29T17:37:58.335Z,28.61
2019-05-29T17:40:26.609Z,29.12
2019-05-29T17:42:54.787Z,28.93
2019-05-29T17:45:25.717Z,27.90
2019-05-29T17:47:53.058Z,27.58
2019-05-29T17:50:23.128Z,27.72
2019-05-29T17:52:51.248Z,27.68
2019-05-29T17:55:21.764Z,27.55
2019-05-29T17:57:49.336Z,24.92
2019-05-29T18:00:20.533Z,23.75
2019-05-29T18:02:52.418Z,25.56
2019-05-29T18:05:20.410Z,25.31
2019-05-29T18:07:48.787Z,24.00
2019-05-29T18:10:19.338Z,24.40
2019-05-29T18:12:47.259Z,24.92
2019-05-29T18:15:17.205Z,24.73
2019-05-29T18:17:45.418Z,23.25
2019-05-29T18:20:15.116Z,23.48
2019-05-29T18:22:43.680Z,23.84
2019-05-29T18:25:12.071Z,23.84
2019-05-29T18:27:40.290Z,23.36
2019-05-29T18:30:09.213Z,22.65
2019-05-29T18:32:37.399Z,22.62
2019-05-29T18:35:06.253Z,22.86
2019-05-29T18:37:34.449Z,22.68
2019-05-29T18:40:02.721Z,22.25
2019-05-29T18:42:31.028Z,21.90
2019-05-29T18:44:59.267Z,21.79
2019-05-29T18:47:27.443Z,21.76
2019-05-29T18:49:55.696Z,21.25
2019-05-29T18:52:23.936Z,21.34
2019-05-29T18:54:52.260Z,21.20
2019-05-29T18:57:20.895Z,21.05
2019-05-29T18:59:49.252Z,20.70
2019-05-29T19:02:17.490Z,20.52
2019-05-29T19:04:45.747Z,20.45
2019-05-29T19:07:13.916Z,20.26
2019-05-29T19:09:42.198Z,20.03
2019-05-29T19:12:10.421Z,19.88
2019-05-29T19:14:38.599Z,19.77
2019-05-29T19:17:06.922Z,19.60
2019-05-29T19:19:35.065Z,19.42
2019-05-29T19:22:03.293Z,19.26
2019-05-29T19:24:32.683Z,19.08
2019-05-29T19:27:01.051Z,18.91
2019-05-29T19:29:29.317Z,18.76
2019-05-29T19:31:57.525Z,18.52
2019-05-29T19:34:25.769Z,18.03
2019-05-29T19:36:54.006Z,18.13
2019-05-29T19:39:23.694Z,17.80
2019-05-29T19:41:52.156Z,17.85
2019-05-29T19:44:20.507Z,17.54
2019-05-29T19:46:54.120Z,17.48
2019-05-29T19:49:19.123Z,17.06
2019-05-29T19:51:47.555Z,16.93
2019-05-29T19:54:15.801Z,17.00
2019-05-29T19:56:44.151Z,16.57
2019-05-29T19:59:12.550Z,15.59
2019-05-29T20:01:40.800Z,16.23
2019-05-29T20:04:09.284Z,15.08
2019-05-29T20:06:37.677Z,15.80
2019-05-29T20:09:07.773Z,14.92
2019-05-29T20:11:35.620Z,14.42
2019-05-29T20:14:07.425Z,14.51
2019-05-29T20:16:34.172Z,14.88
2019-05-29T20:19:02.622Z,15.19
2019-05-29T20:21:30.893Z,15.24
2019-05-29T20:23:59.354Z,15.22
2019-05-29T20:26:29.056Z,15.27
2019-05-29T20:28:57.834Z,14.70
2019-05-29T20:31:26.110Z,14.85
2019-05-29T20:33:55.270Z,14.58
2019-05-29T20:36:23.746Z,14.77
2019-05-29T20:38:52.064Z,14.65
2019-05-29T20:41:20.694Z,14.36
2019-05-29T20:43:49.050Z,14.50
2019-05-29T20:46:17.562Z,14.25
2019-05-29T20:48:45.878Z,14.25
2019-05-29T20:51:14.348Z,14.19
2019-05-29T20:53:42.545Z,13.89
2019-05-29T20:56:10.865Z,13.81
2019-05-29T20:58:39.881Z,13.84
2019-05-29T21:01:08.143Z,13.74
2019-05-29T21:03:36.599Z,13.64
2019-05-29T21:06:05.643Z,13.57
2019-05-29T21:08:34.777Z,13.32
2019-05-29T21:11:03.413Z,13.17
2019-05-29T21:13:33.205Z,13.02
2019-05-29T21:16:01.579Z,12.94
2019-05-29T21:18:29.880Z,12.72
2019-05-29T21:20:58.726Z,12.92
2019-05-29T21:23:27.030Z,12.83
2019-05-29T21:25:55.397Z,12.66
2019-05-29T21:28:39.028Z,12.87
2019-05-29T21:30:53.624Z,12.72
2019-05-29T21:33:21.821Z,12.64
2019-05-29T21:35:50.365Z,12.64
2019-05-29T21:38:18.793Z,12.62
2019-05-29T21:40:47.267Z,12.54
2019-05-29T21:43:15.667Z,12.42
2019-05-29T21:45:44.929Z,12.40
2019-05-29T21:48:13.637Z,12.29
2019-05-29T21:50:43.308Z,12.21
2019-05-29T21:53:11.577Z,12.08
2019-05-29T21:55:41.478Z,11.98
2019-05-29T21:58:09.895Z,11.75
2019-05-29T22:00:48.272Z,11.47
2019-05-29T22:03:16.939Z,11.57
2019-05-29T22:05:46.886Z,11.57
2019-05-29T22:08:15.132Z,11.70
2019-05-29T22:10:43.842Z,11.56
2019-05-29T22:13:12.635Z,11.55
2019-05-29T22:15:40.895Z,11.49
2019-05-29T22:18:09.197Z,11.42
2019-05-29T22:20:37.543Z,11.38
2019-05-29T22:23:06.102Z,11.33
2019-05-29T22:25:34.818Z,11.25
2019-05-29T22:28:03.763Z,11.19
2019-05-29T22:30:32.351Z,11.11
2019-05-29T22:33:01.904Z,10.84
2019-05-29T22:35:30.260Z,10.92
2019-05-29T22:38:00.039Z,10.82
2019-05-29T22:40:28.572Z,10.72
2019-05-29T22:42:57.625Z,10.77
2019-05-29T22:45:26.348Z,10.68
2019-05-29T22:47:55.691Z,10.33
2019-05-29T22:50:24.727Z,10.41
2019-05-29T22:52:53.794Z,9.57
2019-05-29T22:55:22.579Z,10.10
2019-05-29T22:57:51.861Z,10.31
2019-05-29T23:00:21.253Z,10.29
2019-05-29T23:02:49.738Z,10.23
2019-05-29T23:05:18.054Z,10.27
2019-05-29T23:07:46.282Z,10.19
2019-05-29T23:10:14.818Z,10.19
2019-05-29T23:12:43.249Z,10.03
2019-05-29T23:15:11.884Z,10.01
2019-05-29T23:17:40.130Z,10.04
2019-05-29T23:20:08.857Z,10.01
2019-05-29T23:22:37.560Z,9.85
2019-05-29T23:25:06.528Z,9.93
2019-05-29T23:27:34.874Z,9.32
2019-05-29T23:30:03.435Z,9.63
2019-05-29T23:32:31.540Z,9.72
2019-05-29T23:34:59.682Z,9.70
2019-05-29T23:37:27.948Z,9.66
2019-05-29T23:39:57.114Z,9.62
2019-05-29T23:42:25.322Z,9.56
2019-05-29T23:44:54.147Z,9.51
2019-05-29T23:47:23.390Z,9.45
2019-05-29T23:49:51.574Z,9.25
2019-05-29T23:52:19.824Z,9.24
2019-05-29T23:54:48.101Z,9.34
2019-05-29T23:57:16.439Z,9.37
2019-05-29T23:59:44.588Z,9.40
